SACO

Ingeniero Ambrosio Taravella Airport

Cordoba, Argentina
TAF SACO 171700Z 1718/1818 20010G30KT 2000 RA BR FEW006 BKN030 TX22/1806Z TN12/1819Z BECMG 1800/1803 20010KT 3000 TRA SCT005 OVC035 FEW040CB
Issued Valid From Valid To
Jan-17 @ 17:00 UTC
(6 hours ago)
Jan-17 @ 18:00 UTC
(5 hours ago)
Jan-18 @ 18:00 UTC
(in 19 hours)
Jan-17 @ 18:00 to Jan-18 @ 00:00
TAF SACO 171700Z 1718/1818 20010G30KT 2000 RA BR FEW006 BKN030 TX22/1806Z TN12/1819Z
Wind Visibility Clouds Conditions
200° at 10 knots
 Gusting to 30 knots
1,996 meters
  • Few at 600' AGL
  • Broken at 3,000' AGL
  • Rain
  • Mist
Becoming Jan-18 @ 00:00 to Jan-18 @ 18:00
BECMG 1800/1803 20010KT 3000 TRA SCT005 OVC035 FEW040CB
Wind Visibility Clouds Conditions
200° at 10 knots 2,993 meters
  • Scattered at 500' AGL
  • Overcast at 3,500' AGL
  • Few at 4,000' AGL
  • Rain
TAF SACO 171700Z 1718/1818 20010G30KT 2000 RA BR FEW006 BKN030 TX22/1806Z TN12/1819Z BECMG 1800/1803 20010KT 3000 TRA SCT005 OVC035 FEW040CB
Issued Jan-17 @ 17:00 UTC
(6 hours ago)
Valid From Jan-17 @ 18:00 UTC
(5 hours ago)
Valid To Jan-18 @ 18:00 UTC
(in 19 hours)
Jan-17 @ 18:00 - Jan-18 @ 00:00
Wind Visibility
200° at 10 knots
 Gusting to 30 knots
1,996 meters
Clouds
  • Few at 600' AGL
  • Broken at 3,000' AGL
Conditions
  • Rain
  • Mist
Becoming Jan-18 @ 00:00 - Jan-18 @ 18:00
Wind Visibility
200° at 10 knots 2,993 meters
Clouds
  • Scattered at 500' AGL
  • Overcast at 3,500' AGL
  • Few at 4,000' AGL
Conditions
  • Rain